createdAt,value
2023-03-30T00:00:35.541Z,95369.9
2023-03-30T00:01:37.676Z,95371.2
2023-03-30T00:02:40.152Z,95369.4
2023-03-30T00:03:42.957Z,95370.1
2023-03-30T00:04:45.774Z,95366.2
2023-03-30T00:05:48.096Z,95370.7
2023-03-30T00:06:49.586Z,95371.7
2023-03-30T00:07:51.644Z,95370.7
2023-03-30T00:08:54.131Z,95363.4
2023-03-30T00:09:56.204Z,95362.1
2023-03-30T00:10:58.081Z,95364.9
2023-03-30T00:11:59.956Z,95360.3
2023-03-30T00:13:02.102Z,95355.4
2023-03-30T00:14:04.303Z,95359.4
2023-03-30T00:15:06.394Z,95352.9
2023-03-30T00:16:08.636Z,95349.7
2023-03-30T00:17:10.630Z,95352.5
2023-03-30T00:18:12.774Z,95353.1
2023-03-30T00:19:14.850Z,95348.7
2023-03-30T00:20:16.915Z,95343.9
2023-03-30T00:21:19.646Z,95345.5
2023-03-30T00:22:21.513Z,95342.7
2023-03-30T00:23:23.185Z,95338.8
2023-03-30T00:24:25.266Z,95342.2
2023-03-30T00:25:27.184Z,95340.7
2023-03-30T00:26:29.352Z,95340
2023-03-30T00:27:31.450Z,95337.6
2023-03-30T00:28:33.328Z,95338.6
2023-03-30T00:29:35.462Z,95334.7
2023-03-30T00:30:37.624Z,95332
2023-03-30T00:31:39.897Z,95327.3
2023-03-30T00:32:42.218Z,95325.9
2023-03-30T00:34:49.215Z,95323.6
2023-03-30T00:35:51.249Z,95324.1
2023-03-30T00:36:53.259Z,95321.9
2023-03-30T00:37:55.396Z,95316.3
2023-03-30T00:38:57.480Z,95317.5
2023-03-30T00:39:59.561Z,95317
2023-03-30T00:41:02.626Z,95315.2
2023-03-30T00:42:05.060Z,95313.8
2023-03-30T00:43:07.177Z,95308.6
2023-03-30T00:44:09.101Z,95310.5
2023-03-30T00:45:11.317Z,95310.8
2023-03-30T00:46:13.933Z,95307.2
2023-03-30T00:47:16.038Z,95306
2023-03-30T00:48:17.646Z,95303.2
2023-03-30T00:49:19.653Z,95296.5
2023-03-30T00:50:21.543Z,95298.6
2023-03-30T00:51:23.440Z,95300.2
2023-03-30T00:52:25.555Z,95297.4
2023-03-30T00:53:27.669Z,95297.6
2023-03-30T00:54:29.558Z,95296.9
2023-03-30T00:55:31.714Z,95296.4
2023-03-30T00:56:33.821Z,95296.9
2023-03-30T00:57:35.924Z,95299.1
2023-03-30T00:58:37.886Z,95299.5
2023-03-30T00:59:39.813Z,95299
2023-03-30T01:00:42.006Z,95303.8
2023-03-30T01:01:44.087Z,95302.1
2023-03-30T01:02:46.870Z,95297.3
2023-03-30T01:03:49.902Z,95298.6
2023-03-30T01:04:52.190Z,95300.9
2023-03-30T01:05:54.351Z,95297.4
2023-03-30T01:06:56.064Z,95300.3
2023-03-30T01:07:57.967Z,95299.2
2023-03-30T01:09:00.085Z,95295
2023-03-30T01:10:02.005Z,95299.1
2023-03-30T01:11:04.743Z,95294.8
2023-03-30T01:12:07.015Z,95295.5
2023-03-30T01:13:09.133Z,95293.1
2023-03-30T01:14:11.287Z,95286.3
2023-03-30T01:15:13.198Z,95288.1
2023-03-30T01:16:15.578Z,95292.1
2023-03-30T01:17:17.804Z,95293.7
2023-03-30T01:18:20.006Z,95291.7
2023-03-30T01:19:22.087Z,95291.7
2023-03-30T01:20:24.184Z,95292.2
2023-03-30T01:21:26.071Z,95293
2023-03-30T01:22:27.644Z,95288.3
2023-03-30T01:23:29.732Z,95293
2023-03-30T01:24:31.823Z,95290.6
2023-03-30T01:25:33.914Z,95289.2
2023-03-30T01:26:36.012Z,95286
2023-03-30T01:27:37.885Z,95279.1
2023-03-30T01:28:39.978Z,95276.3
2023-03-30T01:29:41.961Z,95284.1
2023-03-30T01:30:44.035Z,95286.8
2023-03-30T01:31:46.545Z,95286.5
2023-03-30T01:32:48.845Z,95286.2
2023-03-30T01:33:50.990Z,95282.6
2023-03-30T01:34:53.241Z,95285.6
2023-03-30T01:35:55.638Z,95279.5
2023-03-30T01:36:57.901Z,95286.6
2023-03-30T01:38:00.018Z,95279.4
2023-03-30T01:39:02.112Z,95274.9
2023-03-30T01:40:03.986Z,95277
2023-03-30T01:41:06.830Z,95275.9
2023-03-30T01:42:08.998Z,95278
2023-03-30T01:43:10.928Z,95280.2
2023-03-30T01:44:13.027Z,95273.5
2023-03-30T01:45:15.121Z,95275
2023-03-30T01:46:17.570Z,95276.7
2023-03-30T01:47:20.134Z,95272.5
2023-03-30T01:48:22.303Z,95271.6
2023-03-30T01:49:24.017Z,95277.3
2023-03-30T01:50:25.915Z,95270.2
2023-03-30T01:51:27.974Z,95272.1
2023-03-30T01:52:30.149Z,95275.4
2023-03-30T01:53:32.298Z,95275.2
2023-03-30T01:54:34.442Z,95278.1
2023-03-30T01:55:36.507Z,95280.5
2023-03-30T01:56:38.667Z,95280
2023-03-30T01:57:40.847Z,95281
2023-03-30T01:58:42.952Z,95284
2023-03-30T01:59:45.057Z,95286.2
2023-03-30T02:00:47.133Z,95293.7
2023-03-30T02:01:48.976Z,95291.9
2023-03-30T02:02:51.519Z,95297.1
2023-03-30T02:03:53.954Z,95299.7
2023-03-30T02:04:56.099Z,95295.9
2023-03-30T02:05:57.985Z,95299.7
2023-03-30T02:07:00.100Z,95296.9
2023-03-30T02:08:02.175Z,95296.6
2023-03-30T02:09:04.102Z,95294
2023-03-30T02:10:06.196Z,95293.1
2023-03-30T02:11:08.623Z,95299.1
2023-03-30T02:12:10.302Z,95296.6
2023-03-30T02:13:12.205Z,95297.1
2023-03-30T02:14:13.921Z,95294.4
2023-03-30T02:15:16.050Z,95297.9
2023-03-30T02:16:18.193Z,95292.7
2023-03-30T02:17:20.109Z,95297.5
2023-03-30T02:18:22.279Z,95301.4
2023-03-30T02:19:24.410Z,95296.3
2023-03-30T02:20:26.492Z,95295.2
2023-03-30T02:21:28.611Z,95295.5
2023-03-30T02:22:30.528Z,95296.4
2023-03-30T02:23:32.630Z,95295.9
2023-03-30T02:24:34.339Z,95296.3
2023-03-30T02:25:36.433Z,95298.3
2023-03-30T02:26:38.130Z,95298.4
2023-03-30T02:27:39.802Z,95296
2023-03-30T02:28:42.009Z,95296.2
2023-03-30T02:29:43.933Z,95303
2023-03-30T02:30:45.628Z,95302.9
2023-03-30T02:31:48.023Z,95305.5
2023-03-30T02:32:50.244Z,95308.5
2023-03-30T02:33:52.545Z,95304.4
2023-03-30T02:34:54.652Z,95308.3
2023-03-30T02:35:56.503Z,95313
2023-03-30T02:36:58.721Z,95309.8
2023-03-30T02:38:00.846Z,95309.8
2023-03-30T02:39:02.948Z,95310.1
2023-03-30T02:40:04.867Z,95320.8
2023-03-30T02:41:07.289Z,95316
2023-03-30T02:42:09.241Z,95323.2
2023-03-30T02:43:10.742Z,95328.6
2023-03-30T02:44:12.440Z,95332.3
2023-03-30T02:45:14.323Z,95330.9
2023-03-30T02:46:16.783Z,95336.6
2023-03-30T02:47:19.072Z,95339.2
2023-03-30T02:48:21.139Z,95343.9
2023-03-30T02:49:23.337Z,95340.8
2023-03-30T02:50:25.445Z,95347.7
2023-03-30T02:51:27.534Z,95353.4
2023-03-30T02:52:29.415Z,95355.4
2023-03-30T02:53:31.276Z,95353.9
2023-03-30T02:54:33.446Z,95359
2023-03-30T02:55:35.031Z,95353.5
2023-03-30T02:56:36.920Z,95347.5
2023-03-30T02:57:39.012Z,95353.5
2023-03-30T02:58:40.878Z,95349.3
2023-03-30T02:59:42.989Z,95349
2023-03-30T03:00:44.700Z,95352.6
2023-03-30T03:01:47.178Z,95357.1
2023-03-30T03:02:49.173Z,95353.4
2023-03-30T03:03:51.571Z,95352.1
2023-03-30T03:04:53.676Z,95348.3
2023-03-30T03:05:55.791Z,95348.3
2023-03-30T03:06:57.606Z,95346.9
2023-03-30T03:07:59.508Z,95345.5
2023-03-30T03:09:01.561Z,95342.2
2023-03-30T03:10:03.515Z,95338.1
2023-03-30T03:11:06.880Z,95340.4
2023-03-30T03:12:09.577Z,95336.5
2023-03-30T03:13:11.685Z,95330.5
2023-03-30T03:14:13.394Z,95336
2023-03-30T03:15:15.075Z,95338.7
2023-03-30T03:16:17.217Z,95337.2
2023-03-30T03:17:19.370Z,95331
2023-03-30T03:18:21.444Z,95331.8
2023-03-30T03:19:23.348Z,95330.4
2023-03-30T03:20:25.544Z,95333.9
2023-03-30T03:21:27.640Z,95333.2
2023-03-30T03:22:29.730Z,95332.3
2023-03-30T03:23:31.831Z,95329.1
2023-03-30T03:24:33.338Z,95328.8
2023-03-30T03:25:35.432Z,95325.3
2023-03-30T03:26:37.558Z,95317.4
2023-03-30T03:27:39.568Z,95314.9
2023-03-30T03:28:41.689Z,95315
2023-03-30T03:29:43.384Z,95316.5
2023-03-30T03:30:45.575Z,95313.1
2023-03-30T03:31:47.694Z,95311.9
2023-03-30T03:32:50.029Z,95309.7
2023-03-30T03:33:51.802Z,95311.5
2023-03-30T03:34:53.880Z,95308.8
2023-03-30T03:35:56.306Z,95308.3
2023-03-30T03:36:58.412Z,95316.4
2023-03-30T03:38:00.338Z,95319.4
2023-03-30T03:39:02.225Z,95327.3
2023-03-30T03:40:04.530Z,95331.7
2023-03-30T03:41:07.706Z,95334.8
2023-03-30T03:42:09.912Z,95342.3
2023-03-30T03:43:12.017Z,95350
2023-03-30T03:44:14.085Z,95351.6
2023-03-30T03:45:16.194Z,95357.6
2023-03-30T03:46:18.486Z,95353.9
2023-03-30T03:47:20.839Z,95364.4
2023-03-30T03:48:23.101Z,95371.1
2023-03-30T03:49:25.249Z,95373.3
2023-03-30T03:50:27.351Z,95374.5
2023-03-30T03:51:29.550Z,95382.8
2023-03-30T03:52:31.650Z,95388.1
2023-03-30T03:53:33.735Z,95389.6
2023-03-30T03:54:35.470Z,95393.4
2023-03-30T03:55:37.652Z,95393.7
2023-03-30T03:56:40.083Z,95393.5
2023-03-30T03:57:41.851Z,95395.2
2023-03-30T03:58:43.596Z,95396.4
2023-03-30T03:59:45.665Z,95396
2023-03-30T04:00:47.954Z,95399.4
2023-03-30T04:01:50.192Z,95402.5
2023-03-30T04:02:52.642Z,95397.5
2023-03-30T04:03:54.629Z,95388.7
2023-03-30T04:04:56.948Z,95379.5
2023-03-30T04:05:58.912Z,95386.5
2023-03-30T04:07:01.115Z,95388.2
2023-03-30T04:08:03.266Z,95384
2023-03-30T04:09:05.213Z,95388.8
2023-03-30T04:10:07.096Z,95389.9
2023-03-30T04:11:09.085Z,95397.1
2023-03-30T04:12:11.014Z,95393.4
2023-03-30T04:13:12.726Z,95398.8
2023-03-30T04:14:14.636Z,95401.7
2023-03-30T04:15:16.329Z,95399.4
2023-03-30T04:16:18.390Z,95398.9
2023-03-30T04:17:20.341Z,95399.5
2023-03-30T04:18:22.483Z,95399.1
2023-03-30T04:19:24.561Z,95399.8
2023-03-30T04:20:26.676Z,95408.9
2023-03-30T04:21:28.385Z,95411.9
2023-03-30T04:22:30.558Z,95410.2
2023-03-30T04:23:32.685Z,95417.3
2023-03-30T04:24:34.779Z,95422
2023-03-30T04:25:36.707Z,95418.4
2023-03-30T04:26:38.822Z,95417.7
2023-03-30T04:27:40.803Z,95417.1
2023-03-30T04:28:42.706Z,95421.6
2023-03-30T04:29:44.591Z,95422.8
2023-03-30T04:30:46.652Z,95430.9
2023-03-30T04:31:49.080Z,95432.7
2023-03-30T04:32:51.379Z,95436.3
2023-03-30T04:33:53.626Z,95432.5
2023-03-30T04:34:55.692Z,95432.1
2023-03-30T04:35:58.125Z,95430.4
2023-03-30T04:37:00.130Z,95429.7
2023-03-30T04:38:02.689Z,95429
2023-03-30T04:39:04.890Z,95427
2023-03-30T04:40:06.779Z,95432.6
2023-03-30T04:41:08.882Z,95436.3
2023-03-30T04:42:10.975Z,95428.1
2023-03-30T04:43:12.868Z,95431.1
2023-03-30T04:44:14.998Z,95427
2023-03-30T04:45:17.091Z,95426
2023-03-30T04:46:19.255Z,95430.2
2023-03-30T04:47:21.529Z,95434
2023-03-30T04:48:23.568Z,95428.6
2023-03-30T04:49:25.722Z,95430
2023-03-30T04:50:27.615Z,95428.6
2023-03-30T04:51:29.527Z,95425.9
2023-03-30T04:52:31.441Z,95420.4
2023-03-30T04:53:33.640Z,95418.9
2023-03-30T04:54:35.376Z,95417.6
2023-03-30T04:55:37.246Z,95417.4
2023-03-30T04:56:39.339Z,95414.2
2023-03-30T04:57:41.219Z,95410.3
2023-03-30T04:58:43.285Z,95412.7
2023-03-30T04:59:45.359Z,95413.7
2023-03-30T05:00:47.575Z,95409.9
2023-03-30T05:01:50.067Z,95407.4
2023-03-30T05:02:52.898Z,95402.5
2023-03-30T05:03:55.373Z,95401
2023-03-30T05:04:57.296Z,95402.7
2023-03-30T05:05:59.379Z,95397.8
2023-03-30T05:07:01.485Z,95395.7
2023-03-30T05:08:03.407Z,95396.6
2023-03-30T05:09:05.624Z,95394.6
2023-03-30T05:10:07.934Z,95391.2
2023-03-30T05:11:09.882Z,95391.3
2023-03-30T05:12:11.613Z,95391.3
2023-03-30T05:13:13.689Z,95391.1
2023-03-30T05:14:15.798Z,95387.6
2023-03-30T05:15:17.562Z,95389.3
2023-03-30T05:16:19.866Z,95385.6
2023-03-30T05:17:22.152Z,95383.3
2023-03-30T05:18:24.055Z,95383.1
2023-03-30T05:19:26.169Z,95380.6
2023-03-30T05:20:28.348Z,95380.4
2023-03-30T05:21:30.432Z,95376.2
2023-03-30T05:22:32.323Z,95375.1
2023-03-30T05:23:34.030Z,95373.2
2023-03-30T05:24:36.037Z,95375.6
2023-03-30T05:25:38.337Z,95373.2
2023-03-30T05:26:40.280Z,95360.9
2023-03-30T05:27:42.472Z,95367
2023-03-30T05:28:44.591Z,95367.2
2023-03-30T05:29:46.678Z,95366.1
2023-03-30T05:30:48.854Z,95365.9
2023-03-30T05:31:50.899Z,95361.7
2023-03-30T05:32:52.917Z,95365.3
2023-03-30T05:33:55.128Z,95363.3
2023-03-30T05:34:57.260Z,95365.7
2023-03-30T05:35:59.222Z,95361.8
2023-03-30T05:37:01.040Z,95361.2
2023-03-30T05:38:02.946Z,95354.1
2023-03-30T05:39:04.833Z,95352.6
2023-03-30T05:40:07.094Z,95350.9
2023-03-30T05:41:09.258Z,95348.3
2023-03-30T05:42:11.170Z,95341.6
2023-03-30T05:43:13.170Z,95333.5
2023-03-30T05:44:15.100Z,95326.1
2023-03-30T05:45:16.991Z,95326
2023-03-30T05:46:19.356Z,95321.4
2023-03-30T05:47:21.609Z,95316.5
2023-03-30T05:48:23.337Z,95319.7
2023-03-30T05:49:25.226Z,95313.9
2023-03-30T05:50:26.925Z,95309.1
2023-03-30T05:51:28.859Z,95310.4
2023-03-30T05:52:30.949Z,95315.7
2023-03-30T05:53:32.869Z,95310.8
2023-03-30T05:54:34.790Z,95307.9
2023-03-30T05:55:36.765Z,95302
2023-03-30T05:56:38.873Z,95307.8
2023-03-30T05:57:40.876Z,95308.9
2023-03-30T05:58:42.955Z,95305
2023-03-30T05:59:45.035Z,95308.9
2023-03-30T06:00:47.121Z,95307.3
2023-03-30T06:01:49.217Z,95302.6
2023-03-30T06:02:51.430Z,95294.8
2023-03-30T06:03:54.502Z,95291.9
2023-03-30T06:04:57.149Z,95290.2
2023-03-30T06:05:59.319Z,95290.7
2023-03-30T06:07:01.513Z,95290.8
2023-03-30T06:08:03.598Z,95283.6
2023-03-30T06:09:05.562Z,95281.7
2023-03-30T06:10:07.486Z,95280.1
2023-03-30T06:11:09.721Z,95272.7
2023-03-30T06:12:11.656Z,95272
2023-03-30T06:13:13.746Z,95264
2023-03-30T06:14:15.782Z,95263.8
2023-03-30T06:15:17.886Z,95266.1
2023-03-30T06:16:20.376Z,95267.6
2023-03-30T06:17:22.552Z,95269.4
2023-03-30T06:18:24.656Z,95262.1
2023-03-30T06:19:26.753Z,95262.5
2023-03-30T06:20:28.939Z,95258.6
2023-03-30T06:21:30.832Z,95258
2023-03-30T06:22:33.288Z,95257
2023-03-30T06:23:35.367Z,95252.7
2023-03-30T06:24:37.249Z,95250.8
2023-03-30T06:25:39.138Z,95248.8
2023-03-30T06:26:41.366Z,95249.7
2023-03-30T06:28:48.308Z,95248.3
2023-03-30T06:29:50.020Z,95242.1
2023-03-30T06:30:52.142Z,95240.5
2023-03-30T06:31:54.340Z,95243.2
2023-03-30T06:32:56.974Z,95251.1
2023-03-30T06:33:58.925Z,95247.3
2023-03-30T06:35:01.020Z,95246.5
2023-03-30T06:36:02.911Z,95232.3
2023-03-30T06:37:04.914Z,95229.5
2023-03-30T06:38:06.927Z,95228.1
2023-03-30T06:39:08.847Z,95228.5
2023-03-30T06:40:11.005Z,95230
2023-03-30T06:41:13.052Z,95229.9
2023-03-30T06:42:15.306Z,95223.8
2023-03-30T06:43:17.515Z,95227.6
2023-03-30T06:44:19.651Z,95223.7
2023-03-30T06:45:21.393Z,95214.2
2023-03-30T06:46:24.124Z,95215.9
2023-03-30T06:47:26.891Z,95214.3
2023-03-30T06:48:28.851Z,95213.8
2023-03-30T06:49:30.939Z,95210.2
2023-03-30T06:50:33.032Z,95201.4
2023-03-30T06:51:34.732Z,95192.9
2023-03-30T06:52:36.839Z,95191.8
2023-03-30T06:53:38.978Z,95188.5
2023-03-30T06:54:41.099Z,95185
2023-03-30T06:55:43.579Z,95176.4
2023-03-30T06:56:45.799Z,95178.4
2023-03-30T06:57:48.067Z,95175.9
2023-03-30T06:58:50.192Z,95176.7
2023-03-30T06:59:52.085Z,95180.1
2023-03-30T07:00:54.362Z,95176.3
2023-03-30T07:01:56.441Z,95175.1
2023-03-30T07:02:58.820Z,95182.3
2023-03-30T07:04:01.379Z,95180.3
2023-03-30T07:05:03.404Z,95183.3
2023-03-30T07:06:05.303Z,95180
2023-03-30T07:07:07.387Z,95183.8
2023-03-30T07:08:09.519Z,95174
2023-03-30T07:09:11.405Z,95179
2023-03-30T07:10:13.902Z,95180.8
2023-03-30T07:11:16.034Z,95171.9
2023-03-30T07:12:17.995Z,95170.1
2023-03-30T07:13:20.250Z,95166.9
2023-03-30T07:14:22.371Z,95159.5
2023-03-30T07:15:24.271Z,95166.2
2023-03-30T07:16:26.686Z,95165.6
2023-03-30T07:17:29.192Z,95168
2023-03-30T07:18:31.385Z,95166.1
2023-03-30T07:19:33.452Z,95169.8
2023-03-30T07:20:35.441Z,95169.9
2023-03-30T07:21:37.534Z,95169.4
2023-03-30T07:22:39.257Z,95156.2
2023-03-30T07:23:41.182Z,95157
2023-03-30T07:24:43.203Z,95159.8
2023-03-30T07:25:45.149Z,95161.7
2023-03-30T07:26:46.653Z,95159.6
2023-03-30T07:27:48.830Z,95164.1
2023-03-30T07:28:51.093Z,95163.2
2023-03-30T07:29:53.053Z,95159.6
2023-03-30T07:30:55.308Z,95160.5
2023-03-30T07:31:57.789Z,95163
2023-03-30T07:33:00.619Z,95159.5
2023-03-30T07:34:02.941Z,95157.3
2023-03-30T07:35:05.063Z,95159.8
2023-03-30T07:36:07.356Z,95158.5
2023-03-30T07:37:09.539Z,95156.8
2023-03-30T07:38:11.638Z,95158.9
2023-03-30T07:39:13.136Z,95158.3
2023-03-30T07:40:15.533Z,95162
2023-03-30T07:41:17.491Z,95163.1
2023-03-30T07:42:19.704Z,95169.7
2023-03-30T07:43:21.623Z,95173.3
2023-03-30T07:44:23.862Z,95171.5
2023-03-30T07:45:25.985Z,95173.5
2023-03-30T07:46:28.146Z,95168.2
2023-03-30T07:47:30.457Z,95164
2023-03-30T07:48:32.461Z,95160.7
2023-03-30T07:50:43.507Z,95163.3
2023-03-30T07:51:45.614Z,95173.6
2023-03-30T07:52:47.525Z,95167.2
2023-03-30T07:53:49.477Z,95153.4
2023-03-30T07:54:51.367Z,95150.4
2023-03-30T07:55:53.074Z,95146.2
2023-03-30T07:56:54.959Z,95144.5
2023-03-30T07:57:56.763Z,95145.6
2023-03-30T08:00:03.963Z,95151.3
2023-03-30T08:01:07.326Z,95164.6
2023-03-30T08:02:09.461Z,95155.8
2023-03-30T08:03:12.230Z,95141.7
2023-03-30T08:04:14.960Z,95135.5
2023-03-30T08:05:17.713Z,95120
2023-03-30T08:06:19.932Z,95110.7
2023-03-30T08:07:22.058Z,95111.9
2023-03-30T08:08:24.195Z,95112.3
2023-03-30T08:09:26.286Z,95123.9
2023-03-30T08:10:28.180Z,95127.2
2023-03-30T08:11:30.301Z,95130.4
2023-03-30T08:12:32.200Z,95128.9
2023-03-30T08:13:33.951Z,95127.8
2023-03-30T08:14:35.846Z,95123.6
2023-03-30T08:15:38.031Z,95125.6
2023-03-30T08:16:40.457Z,95123.2
2023-03-30T08:17:43.052Z,95116
2023-03-30T08:18:45.056Z,95117.3
2023-03-30T08:19:47.260Z,95120.4
2023-03-30T08:20:49.172Z,95118.1
2023-03-30T08:21:51.264Z,95124.9
2023-03-30T08:22:53.404Z,95123.7
2023-03-30T08:23:54.951Z,95117.9
2023-03-30T08:24:56.918Z,95118.1
2023-03-30T08:25:59.027Z,95129.1
2023-03-30T08:27:01.298Z,95117.3
2023-03-30T08:28:03.622Z,95111.2
2023-03-30T08:29:05.707Z,95114.8
2023-03-30T08:30:07.848Z,95113
2023-03-30T08:31:10.254Z,95112.9
2023-03-30T08:32:12.577Z,95113.9
2023-03-30T08:33:14.715Z,95113.6
2023-03-30T08:34:16.736Z,95109.4
2023-03-30T08:35:18.825Z,95109.6
2023-03-30T08:36:20.908Z,95118.9
2023-03-30T08:37:22.791Z,95119.3
2023-03-30T08:38:24.884Z,95118.6
2023-03-30T08:39:27.004Z,95119.4
2023-03-30T08:40:28.714Z,95120.6
2023-03-30T08:41:30.828Z,95118.6
2023-03-30T08:42:32.697Z,95113
2023-03-30T08:43:34.617Z,95116.3
2023-03-30T08:44:36.709Z,95110.1
2023-03-30T08:46:46.336Z,95121
2023-03-30T08:47:48.609Z,95117.1
2023-03-30T08:48:50.947Z,95118.1
2023-03-30T08:49:53.053Z,95118.5
2023-03-30T08:50:54.982Z,95116.8
2023-03-30T08:51:56.967Z,95115.1
2023-03-30T08:52:59.098Z,95115.3
2023-03-30T08:54:01.215Z,95115.1
2023-03-30T08:55:03.376Z,95115
2023-03-30T08:56:05.338Z,95108.8
2023-03-30T08:57:07.656Z,95100.3
2023-03-30T08:58:09.932Z,95094.4
2023-03-30T08:59:11.658Z,95093.3
2023-03-30T09:00:13.882Z,95087.3
2023-03-30T09:01:16.086Z,95094
2023-03-30T09:02:18.476Z,95102
2023-03-30T09:03:21.139Z,95102.2
2023-03-30T09:04:23.110Z,95100
2023-03-30T09:05:25.581Z,95103.1
2023-03-30T09:06:27.784Z,95105.4
2023-03-30T09:07:29.934Z,95105.2
2023-03-30T09:08:31.840Z,95108.1
2023-03-30T09:09:34.034Z,95108.9
2023-03-30T09:10:35.758Z,95112.1
2023-03-30T09:11:38.042Z,95111.8
2023-03-30T09:12:40.046Z,95110.8
2023-03-30T09:13:42.660Z,95107.9
2023-03-30T09:14:44.593Z,95101.2
2023-03-30T09:15:46.485Z,95105.6
2023-03-30T09:16:48.538Z,95108.1
2023-03-30T09:17:51.165Z,95113
2023-03-30T09:18:53.373Z,95114.8
2023-03-30T09:19:55.086Z,95119.1
2023-03-30T09:20:57.067Z,95115.1
2023-03-30T09:21:58.979Z,95113.8
2023-03-30T09:23:01.074Z,95117
2023-03-30T09:24:02.789Z,95118.9
2023-03-30T09:25:04.749Z,95122.8
2023-03-30T09:26:06.913Z,95125
2023-03-30T09:27:08.820Z,95126.3
2023-03-30T09:28:10.957Z,95124.5
2023-03-30T09:29:13.037Z,95123.4
2023-03-30T09:30:15.211Z,95126.4
2023-03-30T09:32:23.891Z,95124.8
2023-03-30T09:33:26.183Z,95120.6
2023-03-30T09:34:28.172Z,95117.3
2023-03-30T09:35:30.308Z,95114.6
2023-03-30T09:36:32.468Z,95116
2023-03-30T09:37:34.580Z,95119.9
2023-03-30T09:38:36.505Z,95124.1
2023-03-30T09:39:38.195Z,95125.1
2023-03-30T09:40:40.116Z,95125.9
2023-03-30T09:41:42.218Z,95127
2023-03-30T09:42:44.116Z,95125.7
2023-03-30T09:43:46.287Z,95124.6
2023-03-30T09:44:48.448Z,95123.3
2023-03-30T09:45:50.471Z,95129.3
2023-03-30T09:46:52.460Z,95120.7
2023-03-30T09:47:54.566Z,95124
2023-03-30T09:48:56.866Z,95129.2
2023-03-30T09:49:58.976Z,95130
2023-03-30T09:51:01.080Z,95131.6
2023-03-30T09:52:02.787Z,95138.9
2023-03-30T09:53:04.712Z,95134.4
2023-03-30T09:54:06.452Z,95134.9
2023-03-30T09:55:08.568Z,95137.7
2023-03-30T09:56:10.675Z,95135.5
2023-03-30T09:57:12.910Z,95135.2
2023-03-30T09:58:14.890Z,95131.9
2023-03-30T09:59:16.821Z,95132.9
2023-03-30T10:00:18.967Z,95126.7
2023-03-30T10:01:21.396Z,95130.1
2023-03-30T10:02:23.957Z,95126.9
2023-03-30T10:03:26.552Z,95123.3
2023-03-30T10:04:29.314Z,95126.6
2023-03-30T10:05:31.533Z,95126.4
2023-03-30T10:06:33.630Z,95124.3
2023-03-30T10:07:35.733Z,95123.2
2023-03-30T10:08:37.886Z,95117.2
2023-03-30T10:09:40.100Z,95116.2
2023-03-30T10:10:42.217Z,95114.5
2023-03-30T10:11:44.312Z,95115.9
2023-03-30T10:12:46.213Z,95122.9
2023-03-30T10:13:48.339Z,95120.3
2023-03-30T10:14:50.229Z,95121.6
2023-03-30T10:15:52.457Z,95118.2
2023-03-30T10:16:54.504Z,95117.8
2023-03-30T10:17:57.113Z,95114.6
2023-03-30T10:18:59.141Z,95119.6
2023-03-30T10:21:06.328Z,95118.8
2023-03-30T10:22:08.325Z,95117
2023-03-30T10:23:10.498Z,95119.5
2023-03-30T10:24:12.574Z,95120.2
2023-03-30T10:25:14.472Z,95126
2023-03-30T10:26:16.402Z,95127.9
2023-03-30T10:27:18.500Z,95130.4
2023-03-30T10:28:20.411Z,95134.4
2023-03-30T10:29:22.318Z,95133.1
2023-03-30T10:30:24.478Z,95135.7
2023-03-30T10:32:31.743Z,95143.5
2023-03-30T10:33:33.375Z,95144.6
2023-03-30T10:34:35.254Z,95143.9
2023-03-30T10:35:37.668Z,95144
2023-03-30T10:36:40.021Z,95150.4
2023-03-30T10:37:42.141Z,95149.3
2023-03-30T10:38:44.224Z,95157
2023-03-30T10:39:46.126Z,95155.8
2023-03-30T10:40:48.049Z,95153.7
2023-03-30T10:41:50.137Z,95158.6
2023-03-30T10:42:52.235Z,95160.5
2023-03-30T10:43:54.141Z,95159.4
2023-03-30T10:44:56.251Z,95168.4
2023-03-30T10:47:03.511Z,95173.5
2023-03-30T10:48:05.889Z,95178.1
2023-03-30T10:49:07.895Z,95179.5
2023-03-30T10:50:09.831Z,95180.3
2023-03-30T10:51:12.284Z,95186.2
2023-03-30T10:52:14.655Z,95190.3
2023-03-30T10:53:16.784Z,95193.6
2023-03-30T10:54:18.891Z,95185.5
2023-03-30T10:55:20.826Z,95199.8
2023-03-30T10:56:22.949Z,95198.3
2023-03-30T10:57:25.764Z,95204.3
2023-03-30T10:58:27.967Z,95208.9
2023-03-30T10:59:29.878Z,95210.5
2023-03-30T11:00:31.954Z,95211.5
2023-03-30T11:01:34.046Z,95216.6
2023-03-30T11:02:36.571Z,95217.1
2023-03-30T11:03:39.077Z,95224.3
2023-03-30T11:04:41.312Z,95222
2023-03-30T11:05:43.400Z,95226.3
2023-03-30T11:06:45.316Z,95232.4
2023-03-30T11:07:47.558Z,95231.1
2023-03-30T11:08:49.608Z,95233.9
2023-03-30T11:09:51.289Z,95240.3
2023-03-30T11:10:52.961Z,95240
2023-03-30T11:11:55.319Z,95247.5
2023-03-30T11:12:57.081Z,95248.5
2023-03-30T11:13:59.178Z,95251
2023-03-30T11:15:01.269Z,95243.5
2023-03-30T11:16:04.645Z,95248.5
2023-03-30T11:17:07.215Z,95247.4
2023-03-30T11:18:09.515Z,95254.5
2023-03-30T11:19:11.826Z,95257.5
2023-03-30T11:20:13.820Z,95256.7
2023-03-30T11:21:15.725Z,95255.7
2023-03-30T11:22:17.678Z,95267.1
2023-03-30T11:23:19.690Z,95268.1
2023-03-30T11:24:21.877Z,95256.5
2023-03-30T11:25:24.000Z,95249.3
2023-03-30T11:26:25.906Z,95264.7
2023-03-30T11:27:28.030Z,95279.3
2023-03-30T11:28:30.109Z,95281.9
2023-03-30T11:29:32.222Z,95276.1
2023-03-30T11:30:34.360Z,95281.5
2023-03-30T11:31:36.490Z,95283.6
2023-03-30T11:32:38.819Z,95276.8
2023-03-30T11:33:40.777Z,95281.8
2023-03-30T11:34:43.380Z,95279.7
2023-03-30T11:35:45.253Z,95280.9
2023-03-30T11:36:47.389Z,95294.2
2023-03-30T11:37:49.543Z,95291.9
2023-03-30T11:38:51.722Z,95294.5
2023-03-30T11:39:53.741Z,95300.8
2023-03-30T11:40:55.839Z,95289.1
2023-03-30T11:41:57.970Z,95292.9
2023-03-30T11:42:59.916Z,95291.7
2023-03-30T11:44:01.871Z,95295.7
2023-03-30T11:45:03.852Z,95301.4
2023-03-30T11:46:06.988Z,95297.3
2023-03-30T11:47:09.817Z,95305.2
2023-03-30T11:48:12.130Z,95306.8
2023-03-30T11:49:14.799Z,95311.2
2023-03-30T11:50:16.886Z,95318.3
2023-03-30T11:51:18.678Z,95315.9
2023-03-30T11:52:20.776Z,95319.5
2023-03-30T11:53:22.905Z,95316.7
2023-03-30T11:54:25.041Z,95328.2
2023-03-30T11:55:26.949Z,95333
2023-03-30T11:56:28.880Z,95338.7
2023-03-30T11:57:31.357Z,95343.6
2023-03-30T11:58:33.541Z,95351.9
2023-03-30T11:59:35.457Z,95353.3
2023-03-30T12:00:37.578Z,95346.9
2023-03-30T12:01:39.305Z,95358
2023-03-30T12:02:41.795Z,95354.8
2023-03-30T12:03:45.052Z,95362.6
2023-03-30T12:04:47.856Z,95362.9
2023-03-30T12:05:49.947Z,95364.7
2023-03-30T12:06:52.067Z,95362.1
2023-03-30T12:07:54.207Z,95352.6
2023-03-30T12:08:56.503Z,95351.9
2023-03-30T12:11:07.018Z,95349
2023-03-30T12:12:09.337Z,95353
2023-03-30T12:13:11.261Z,95353
2023-03-30T12:14:13.166Z,95355.9
2023-03-30T12:15:15.259Z,95346.8
2023-03-30T12:16:17.580Z,95347.6
2023-03-30T12:17:19.799Z,95341.9
2023-03-30T12:18:21.693Z,95343.3
2023-03-30T12:19:23.592Z,95329.6
2023-03-30T12:20:25.676Z,95320.6
2023-03-30T12:21:27.585Z,95320.5
2023-03-30T12:22:29.503Z,95325.6
2023-03-30T12:23:31.413Z,95330.6
2023-03-30T12:24:33.330Z,95336.7
2023-03-30T12:25:35.555Z,95335.9
2023-03-30T12:26:37.527Z,95331.3
2023-03-30T12:27:39.511Z,95332.3
2023-03-30T12:30:51.569Z,95318
2023-03-30T12:31:54.279Z,95307.2
2023-03-30T12:32:56.476Z,95304.2
2023-03-30T12:33:58.512Z,95303.4
2023-03-30T12:35:00.499Z,95296.6
2023-03-30T12:36:03.504Z,95289.8
2023-03-30T12:37:06.083Z,95281
2023-03-30T12:38:08.007Z,95280.1
2023-03-30T12:39:10.092Z,95287.8
2023-03-30T12:40:12.183Z,95293.6
2023-03-30T12:41:13.914Z,95294.3
2023-03-30T12:42:16.142Z,95298.5
2023-03-30T12:43:18.281Z,95289.4
2023-03-30T12:44:20.238Z,95286.3
2023-03-30T12:45:22.361Z,95291.5
2023-03-30T12:46:24.454Z,95290.1
2023-03-30T12:47:26.921Z,95293.8
2023-03-30T12:48:29.092Z,95290.7
2023-03-30T12:49:31.212Z,95284.4